CheckWX is a tool to help pilots better visualize weather data.  It is not intended as a substitute for an official pre-flight weather briefing.

20:12:03 UTC

KCRQ METAR
Mc Clellan-Palomar Airport
Carlsbad, California, USA
Current

19 mins ago

KCRQ 161953Z 25008KT 10SM CLR 17/07 A3008 RMK AO2 SLP184 T01670072
Observed
Feb-16 @ 19:53 UTC
Wind
  • 250° at 8 KTS
Visibility
10 SM
Flight Rules
VFR
Cloud Levels
  • Clear skies
Temperature
17°C / 63°F
Dewpoint
C / 45°F
Humidity
52%
Altimeter
30.08" Hg
Pressure
1018.62 hPa
Previous

1 hour ago

KCRQ 161853Z VRB03KT 9SM CLR 18/08 A3010 RMK AO2 SLP192 T01780078
Observed
Feb-16 @ 18:53 UTC
Wind
  • Variable at 3 KTS
Visibility
9 SM
Flight Rules
VFR
Cloud Levels
  • Clear skies
Temperature
18°C / 64°F
Dewpoint
C / 46°F
Humidity
52%
Altimeter
30.1" Hg
Pressure
1019.32 hPa
Previous

2 hours ago

KCRQ 161753Z 00000KT 9SM CLR 16/07 A3012 RMK AO2 SLP198 T01610067 10161 20072 58005
Observed
Feb-16 @ 17:53 UTC
Visibility
9 SM
Flight Rules
VFR
Cloud Levels
  • Clear skies
Temperature
16°C / 61°F
Dewpoint
C / 45°F
Humidity
55%
Altimeter
30.12" Hg
Pressure
1020.02 hPa